Time;durP1;ratioP1;P1;durP2;ratioP2;P2;SDS_P1;SDS_P2;PMS_P1;PMS_P2;Temp;Humidity;BMP_temperature;BMP_pressure;BME280_temperature;BME280_humidity;BME280_pressure;Samples;Min_cycle;Max_cycle;Signal;HPM_P1;HPM_P2
2022/03/21 00:00:40;;;;;;;23.73;16.83;;;;;;;;;;5097462;28;20180;-69
2022/03/21 00:03:08;;;;;;;25.70;16.80;;;;;;;;;;5097307;28;20208;-70
2022/03/21 00:05:35;;;;;;;25.77;18.38;;;;;;;;;;5097259;28;20258;-69
2022/03/21 00:08:03;;;;;;;25.80;19.60;;;;;;;;;;5097237;28;20199;-69
2022/03/21 00:10:32;;;;;;;28.33;20.10;;;;;;;;;;5096731;28;20211;-69
2022/03/21 00:13:00;;;;;;;31.10;19.65;;;;;;;;;;5096782;28;20200;-69
2022/03/21 00:15:27;;;;;;;32.10;21.90;;;;;;;;;;5096735;28;20206;-69
2022/03/21 00:17:55;;;;;;;34.00;23.55;;;;;;;;;;5096636;28;20226;-69
2022/03/21 00:20:22;;;;;;;35.45;24.35;;;;;;;;;;5096589;28;20566;-69
2022/03/21 00:22:49;;;;;;;30.67;24.42;;;;;;;;;;5097031;28;20621;-69
2022/03/21 00:25:17;;;;;;;34.90;25.10;;;;;;;;;;5096775;28;20200;-69
2022/03/21 00:27:45;;;;;;;37.88;25.42;;;;;;;;;;5096851;28;20294;-69
2022/03/21 00:30:13;;;;;;;35.35;26.33;;;;;;;;;;5096694;28;20196;-69
2022/03/21 00:32:41;;;;;;;33.03;25.88;;;;;;;;;;5096763;28;20206;-69
2022/03/21 00:35:09;;;;;;;34.88;25.27;;;;;;;;;;5096542;28;20201;-68
2022/03/21 00:37:37;;;;;;;36.15;27.10;;;;;;;;;;5096574;28;20560;-69
2022/03/21 00:40:05;;;;;;;34.22;24.83;;;;;;;;;;5096814;28;20195;-69
2022/03/21 00:42:34;;;;;;;38.17;25.02;;;;;;;;;;5096634;28;20196;-69
2022/03/21 00:45:02;;;;;;;29.85;24.40;;;;;;;;;;5096549;28;20255;-69
2022/03/21 00:47:29;;;;;;;41.55;26.77;;;;;;;;;;5096191;28;20210;-69
2022/03/21 00:49:57;;;;;;;38.55;28.50;;;;;;;;;;5096427;28;20624;-69
2022/03/21 00:52:24;;;;;;;37.15;27.15;;;;;;;;;;5096092;28;20231;-69
2022/03/21 00:54:51;;;;;;;42.38;26.40;;;;;;;;;;5096253;28;20274;-69
2022/03/21 00:57:18;;;;;;;42.13;27.48;;;;;;;;;;5096205;28;20223;-69
2022/03/21 00:59:46;;;;;;;38.85;26.48;;;;;;;;;;5096170;28;20287;-69
2022/03/21 01:02:14;;;;;;;35.13;27.98;;;;;;;;;;5096221;28;20218;-70
2022/03/21 01:04:42;;;;;;;37.05;27.83;;;;;;;;;;5096072;28;20298;-70
2022/03/21 01:07:09;;;;;;;37.30;26.67;;;;;;;;;;5096126;28;20290;-70
2022/03/21 01:09:37;;;;;;;36.55;26.50;;;;;;;;;;5095945;28;20290;-70
2022/03/21 01:12:04;;;;;;;41.17;27.40;;;;;;;;;;5095931;28;20290;-70
2022/03/21 01:14:32;;;;;;;34.42;25.73;;;;;;;;;;5096157;28;20240;-70
2022/03/21 01:16:59;;;;;;;38.30;25.42;;;;;;;;;;5095835;28;20307;-70
2022/03/21 01:19:30;;;;;;;33.97;24.67;;;;;;;;;;5095882;28;20286;-69
2022/03/21 01:21:57;;;;;;;33.05;24.05;;;;;;;;;;5095464;28;20656;-69
2022/03/21 01:24:24;;;;;;;28.38;21.38;;;;;;;;;;5096294;28;20190;-69
2022/03/21 01:26:52;;;;;;;34.78;22.73;;;;;;;;;;5095330;28;20196;-69
2022/03/21 01:29:19;;;;;;;33.47;23.15;;;;;;;;;;5095705;28;20198;-68
2022/03/21 01:31:46;;;;;;;32.45;24.10;;;;;;;;;;5095689;28;20561;-69
2022/03/21 01:34:13;;;;;;;37.42;23.40;;;;;;;;;;5095490;28;20193;-68
2022/03/21 01:36:42;;;;;;;31.60;23.23;;;;;;;;;;5095047;28;20197;-69
2022/03/21 01:39:09;;;;;;;30.50;23.35;;;;;;;;;;5096001;28;20304;-69
2022/03/21 01:41:36;;;;;;;28.98;21.55;;;;;;;;;;5095620;28;20196;-69
2022/03/21 01:44:05;;;;;;;30.55;21.90;;;;;;;;;;5095398;28;20192;-69
2022/03/21 01:46:33;;;;;;;32.42;22.80;;;;;;;;;;5095271;28;20197;-69
2022/03/21 01:49:01;;;;;;;36.30;26.40;;;;;;;;;;5094960;28;20192;-69
2022/03/21 01:51:28;;;;;;;35.60;25.63;;;;;;;;;;5095683;28;20186;-69
2022/03/21 01:56:42;;;;;;;37.33;26.27;;;;;;;;;;5094353;28;20244;-69
2022/03/21 01:59:10;;;;;;;43.08;31.75;;;;;;;;;;5095124;28;20192;-69
2022/03/21 02:01:37;;;;;;;42.70;30.00;;;;;;;;;;5095158;28;20201;-69
2022/03/21 02:04:05;;;;;;;38.97;27.30;;;;;;;;;;5094683;28;20205;-69
2022/03/21 02:06:32;;;;;;;45.10;30.88;;;;;;;;;;5094893;28;20556;-69
2022/03/21 02:09:02;;;;;;;44.80;29.77;;;;;;;;;;5095033;28;20203;-69
2022/03/21 02:11:30;;;;;;;46.08;29.10;;;;;;;;;;5094429;28;20645;-69
2022/03/21 02:13:57;;;;;;;40.90;28.83;;;;;;;;;;5094847;28;20303;-69
2022/03/21 02:16:26;;;;;;;49.67;29.20;;;;;;;;;;5094388;28;20199;-69
2022/03/21 02:18:54;;;;;;;40.70;27.15;;;;;;;;;;5094268;28;20223;-69
2022/03/21 02:21:24;;;;;;;48.75;29.83;;;;;;;;;;5094623;28;20287;-69
2022/03/21 02:23:54;;;;;;;41.90;28.33;;;;;;;;;;5094289;28;20226;-68
2022/03/21 02:26:23;;;;;;;38.85;27.33;;;;;;;;;;5094612;28;20192;-68
2022/03/21 02:28:51;;;;;;;41.28;30.45;;;;;;;;;;5094223;28;20207;-69
2022/03/21 02:31:18;;;;;;;43.10;30.23;;;;;;;;;;5094448;28;20201;-69
2022/03/21 02:33:46;;;;;;;45.42;29.00;;;;;;;;;;5094463;28;20216;-69
2022/03/21 02:36:16;;;;;;;41.25;28.85;;;;;;;;;;5094071;28;20266;-68
2022/03/21 02:38:46;;;;;;;41.50;27.58;;;;;;;;;;5094076;28;20264;-68
2022/03/21 02:41:15;;;;;;;44.63;29.45;;;;;;;;;;5094255;28;20248;-68
2022/03/21 02:43:57;;;;;;;43.17;30.10;;;;;;;;;;5094347;28;20196;-69
2022/03/21 02:46:24;;;;;;;39.40;27.15;;;;;;;;;;5094149;28;20205;-68
2022/03/21 02:48:52;;;;;;;37.17;27.05;;;;;;;;;;5094570;28;20196;-69
2022/03/21 02:51:21;;;;;;;45.75;28.00;;;;;;;;;;5094352;28;20227;-69
2022/03/21 02:53:50;;;;;;;38.95;27.70;;;;;;;;;;5093781;28;20681;-68
2022/03/21 02:56:17;;;;;;;35.70;26.75;;;;;;;;;;5094356;28;20203;-69
2022/03/21 02:58:44;;;;;;;37.47;27.88;;;;;;;;;;5093941;28;20223;-69
2022/03/21 03:01:14;;;;;;;43.40;29.65;;;;;;;;;;5093698;28;20191;-68
2022/03/21 03:03:41;;;;;;;39.78;28.05;;;;;;;;;;5093596;28;20200;-68
2022/03/21 03:06:09;;;;;;;40.55;27.85;;;;;;;;;;5093373;28;20199;-69
2022/03/21 03:08:37;;;;;;;37.63;26.95;;;;;;;;;;5093263;28;20566;-68
2022/03/21 03:11:04;;;;;;;39.00;30.00;;;;;;;;;;5093868;28;20286;-69
2022/03/21 03:13:32;;;;;;;45.60;29.73;;;;;;;;;;5093480;28;20198;-68
2022/03/21 03:15:59;;;;;;;40.85;29.63;;;;;;;;;;5093464;28;20249;-68
2022/03/21 03:18:28;;;;;;;42.70;28.27;;;;;;;;;;5093482;28;20319;-69
2022/03/21 03:20:56;;;;;;;40.95;29.70;;;;;;;;;;5093892;28;20246;-68
2022/03/21 03:23:24;;;;;;;47.83;31.70;;;;;;;;;;5093600;28;20205;-68
2022/03/21 03:25:54;;;;;;;40.83;28.05;;;;;;;;;;5093393;28;20196;-68
2022/03/21 03:28:22;;;;;;;48.78;32.60;;;;;;;;;;5093728;28;20223;-69
2022/03/21 03:30:49;;;;;;;45.13;33.25;;;;;;;;;;5093303;28;20649;-68
2022/03/21 03:33:16;;;;;;;47.13;33.25;;;;;;;;;;5093570;28;20200;-68
2022/03/21 03:35:45;;;;;;;43.30;32.22;;;;;;;;;;5093583;28;20203;-69
2022/03/21 03:38:12;;;;;;;48.20;34.17;;;;;;;;;;5093128;28;20622;-69
2022/03/21 03:40:39;;;;;;;46.47;32.25;;;;;;;;;;5093210;28;20671;-71
2022/03/21 03:43:07;;;;;;;46.70;32.55;;;;;;;;;;5093123;28;20230;-69
2022/03/21 03:45:34;;;;;;;45.67;32.70;;;;;;;;;;5093547;28;20203;-69
2022/03/21 03:48:02;;;;;;;43.35;32.78;;;;;;;;;;5093565;28;20625;-69
2022/03/21 03:50:29;;;;;;;47.83;33.22;;;;;;;;;;5093404;28;20218;-69
2022/03/21 03:52:58;;;;;;;48.97;34.67;;;;;;;;;;5093724;28;20721;-69
2022/03/21 03:55:26;;;;;;;49.35;35.47;;;;;;;;;;5093413;28;20195;-69
2022/03/21 03:57:53;;;;;;;48.65;33.25;;;;;;;;;;5093285;28;20624;-69
2022/03/21 04:00:21;;;;;;;44.08;32.88;;;;;;;;;;5093180;28;20206;-69
2022/03/21 04:05:33;;;;;;;59.33;32.83;;;;;;;;;;5093202;28;20174;-69
2022/03/21 04:08:01;;;;;;;53.05;37.33;;;;;;;;;;5093578;28;20204;-69
2022/03/21 04:10:29;;;;;;;46.25;33.20;;;;;;;;;;5093265;28;20581;-69
2022/03/21 04:12:56;;;;;;;51.85;37.30;;;;;;;;;;5093192;28;20203;-69
2022/03/21 04:15:23;;;;;;;54.88;35.75;;;;;;;;;;5093297;28;20190;-69
2022/03/21 04:17:52;;;;;;;50.80;35.78;;;;;;;;;;5093758;28;20576;-69
2022/03/21 04:20:23;;;;;;;53.72;35.30;;;;;;;;;;5097315;28;20200;-69
2022/03/21 04:22:50;;;;;;;51.70;36.20;;;;;;;;;;5097426;28;20276;-69
2022/03/21 04:25:19;;;;;;;52.83;35.05;;;;;;;;;;5097178;28;20699;-69
2022/03/21 04:27:46;;;;;;;53.80;36.55;;;;;;;;;;5096838;28;20204;-69
2022/03/21 04:30:13;;;;;;;52.22;35.38;;;;;;;;;;5097405;28;20198;-68
2022/03/21 04:32:41;;;;;;;50.38;34.45;;;;;;;;;;5096705;28;20223;-68
2022/03/21 04:35:09;;;;;;;51.70;35.92;;;;;;;;;;5097082;28;20227;-69
2022/03/21 04:37:36;;;;;;;55.78;35.42;;;;;;;;;;5096732;28;20245;-69
2022/03/21 04:40:03;;;;;;;52.03;34.80;;;;;;;;;;5096812;28;20192;-68
2022/03/21 04:42:32;;;;;;;47.70;33.28;;;;;;;;;;5096277;28;20196;-69
2022/03/21 04:44:59;;;;;;;56.33;36.40;;;;;;;;;;5096254;28;20565;-69
2022/03/21 04:47:27;;;;;;;54.38;35.13;;;;;;;;;;5096190;28;20283;-68
2022/03/21 04:49:54;;;;;;;51.80;36.08;;;;;;;;;;5096365;28;20588;-73
2022/03/21 04:52:21;;;;;;;52.13;34.63;;;;;;;;;;5096133;28;20192;-70
2022/03/21 04:54:48;;;;;;;53.83;35.95;;;;;;;;;;5096138;28;20286;-70
2022/03/21 04:57:16;;;;;;;54.67;34.38;;;;;;;;;;5096134;28;20206;-71
2022/03/21 04:59:44;;;;;;;49.78;33.45;;;;;;;;;;5096286;28;20311;-71
2022/03/21 05:02:11;;;;;;;47.65;35.03;;;;;;;;;;5094391;28;20198;-70
2022/03/21 05:04:39;;;;;;;50.63;33.00;;;;;;;;;;5094781;28;20200;-69
2022/03/21 05:07:06;;;;;;;62.45;35.42;;;;;;;;;;5094938;28;20203;-70
2022/03/21 05:09:33;;;;;;;50.33;35.28;;;;;;;;;;5094865;28;20199;-69
2022/03/21 05:12:01;;;;;;;50.60;32.40;;;;;;;;;;5095272;28;20234;-69
2022/03/21 05:14:28;;;;;;;51.60;34.67;;;;;;;;;;5095593;28;20193;-70
2022/03/21 05:16:56;;;;;;;51.90;34.75;;;;;;;;;;5095113;28;20204;-70
2022/03/21 05:19:24;;;;;;;50.75;34.47;;;;;;;;;;5095642;28;20230;-69
2022/03/21 05:21:51;;;;;;;48.47;35.28;;;;;;;;;;5095867;28;20195;-69
2022/03/21 05:32:34;;;;;;;45.13;32.85;;;;;;;;;;5095121;28;20554;-69
2022/03/21 05:37:46;;;;;;;48.15;33.15;;;;;;;;;;5094586;28;20659;-69
2022/03/21 05:40:34;;;;;;;47.63;32.63;;;;;;;;;;5095611;28;20207;-69
2022/03/21 05:43:01;;;;;;;57.08;36.72;;;;;;;;;;5095791;28;20184;-69
2022/03/21 05:45:28;;;;;;;47.72;33.13;;;;;;;;;;5094996;28;20231;-70
2022/03/21 05:50:42;;;;;;;46.40;32.65;;;;;;;;;;5095188;28;20284;-69
2022/03/21 05:53:10;;;;;;;50.72;34.28;;;;;;;;;;5094670;28;20198;-69
2022/03/21 05:55:37;;;;;;;53.78;32.55;;;;;;;;;;5094975;28;20550;-69
2022/03/21 05:58:05;;;;;;;47.40;32.92;;;;;;;;;;5094565;28;20198;-69
2022/03/21 06:00:34;;;;;;;56.72;35.83;;;;;;;;;;5094800;28;20640;-70
2022/03/21 06:03:03;;;;;;;54.35;36.00;;;;;;;;;;5095569;28;20195;-70
2022/03/21 06:05:31;;;;;;;51.63;34.72;;;;;;;;;;5094762;28;20191;-69
2022/03/21 06:07:58;;;;;;;51.60;35.10;;;;;;;;;;5094673;28;20387;-70
2022/03/21 06:10:26;;;;;;;52.13;34.92;;;;;;;;;;5095153;28;20192;-70
2022/03/21 06:12:55;;;;;;;65.63;37.47;;;;;;;;;;5094645;28;20291;-69
2022/03/21 06:15:22;;;;;;;51.40;35.47;;;;;;;;;;5094560;28;20199;-69
2022/03/21 06:17:49;;;;;;;54.92;34.35;;;;;;;;;;5093947;28;20326;-69
2022/03/21 06:20:18;;;;;;;55.70;38.95;;;;;;;;;;5094176;28;20228;-70
2022/03/21 06:22:45;;;;;;;55.97;35.10;;;;;;;;;;5094711;28;20195;-69
2022/03/21 06:25:13;;;;;;;72.03;45.10;;;;;;;;;;5094269;28;20191;-69
2022/03/21 06:27:40;;;;;;;55.33;36.88;;;;;;;;;;5094590;28;20195;-66
2022/03/21 06:30:09;;;;;;;61.22;36.10;;;;;;;;;;5094184;28;20541;-66
2022/03/21 06:32:36;;;;;;;54.05;33.75;;;;;;;;;;5094529;28;20558;-66
2022/03/21 06:35:03;;;;;;;53.70;34.28;;;;;;;;;;5094025;28;20198;-66
2022/03/21 06:37:32;;;;;;;53.67;37.05;;;;;;;;;;5094049;28;20200;-66
2022/03/21 06:39:59;;;;;;;54.42;36.85;;;;;;;;;;5094165;28;20225;-66
2022/03/21 06:42:27;;;;;;;49.47;34.80;;;;;;;;;;5093828;28;20203;-66
2022/03/21 06:44:54;;;;;;;50.25;34.40;;;;;;;;;;5094170;28;20197;-66
2022/03/21 06:47:22;;;;;;;53.03;34.70;;;;;;;;;;5094218;28;20191;-66
2022/03/21 06:49:49;;;;;;;48.47;32.58;;;;;;;;;;5093833;28;20226;-66
2022/03/21 06:52:18;;;;;;;56.08;35.17;;;;;;;;;;5094176;28;20192;-66
2022/03/21 06:54:48;;;;;;;48.47;34.75;;;;;;;;;;5094070;28;20227;-66
2022/03/21 06:57:16;;;;;;;57.17;37.60;;;;;;;;;;5094049;28;20297;-66
2022/03/21 06:59:43;;;;;;;45.60;31.65;;;;;;;;;;5094469;28;20306;-66
2022/03/21 07:02:10;;;;;;;50.22;34.30;;;;;;;;;;5093666;28;20657;-66
2022/03/21 07:04:38;;;;;;;51.78;33.35;;;;;;;;;;5093571;28;20195;-66
2022/03/21 07:07:05;;;;;;;49.30;32.67;;;;;;;;;;5093930;28;20196;-66
2022/03/21 07:09:32;;;;;;;49.95;32.83;;;;;;;;;;5093529;28;20207;-67
2022/03/21 07:12:01;;;;;;;48.92;31.67;;;;;;;;;;5093423;28;20244;-66
2022/03/21 07:14:28;;;;;;;42.75;31.55;;;;;;;;;;5094410;28;20200;-66
2022/03/21 07:16:55;;;;;;;45.28;31.20;;;;;;;;;;5093726;28;20222;-66
2022/03/21 07:19:23;;;;;;;47.03;31.92;;;;;;;;;;5093992;28;20228;-66
2022/03/21 07:21:50;;;;;;;43.08;32.08;;;;;;;;;;5093582;28;20291;-66
2022/03/21 07:24:17;;;;;;;45.65;31.73;;;;;;;;;;5093698;28;20211;-66
2022/03/21 07:26:44;;;;;;;38.53;29.25;;;;;;;;;;5093629;28;20190;-66
2022/03/21 07:29:13;;;;;;;43.95;31.10;;;;;;;;;;5093749;28;20596;-66
2022/03/21 07:31:40;;;;;;;37.53;30.33;;;;;;;;;;5093255;28;20191;-66
2022/03/21 07:34:08;;;;;;;49.65;30.48;;;;;;;;;;5093641;28;20197;-67
2022/03/21 07:36:35;;;;;;;47.38;29.35;;;;;;;;;;5093839;28;20238;-66
2022/03/21 07:39:04;;;;;;;42.85;30.90;;;;;;;;;;5093019;28;20710;-67
2022/03/21 07:41:31;;;;;;;40.15;30.05;;;;;;;;;;5093114;28;20648;-67
2022/03/21 07:43:59;;;;;;;46.60;29.65;;;;;;;;;;5093673;28;20282;-67
2022/03/21 07:49:14;;;;;;;46.00;27.83;;;;;;;;;;5093098;28;20199;-67
2022/03/21 07:51:43;;;;;;;35.40;26.27;;;;;;;;;;5093618;28;20511;-67
2022/03/21 07:54:10;;;;;;;39.13;28.33;;;;;;;;;;5096036;28;20603;-67
2022/03/21 07:56:37;;;;;;;41.10;27.35;;;;;;;;;;5097126;28;20197;-67
2022/03/21 07:59:05;;;;;;;35.28;25.85;;;;;;;;;;5097400;28;20222;-67
2022/03/21 08:01:34;;;;;;;39.03;26.17;;;;;;;;;;5097362;28;20190;-66
2022/03/21 08:04:04;;;;;;;38.95;25.13;;;;;;;;;;5097653;28;20191;-67
2022/03/21 08:06:32;;;;;;;38.75;25.92;;;;;;;;;;5097055;28;20185;-67
2022/03/21 08:08:59;;;;;;;37.13;26.83;;;;;;;;;;5097474;28;20289;-67
2022/03/21 08:11:26;;;;;;;35.78;26.02;;;;;;;;;;5097134;28;20201;-67
2022/03/21 08:13:54;;;;;;;31.83;23.88;;;;;;;;;;5097174;28;20215;-66
2022/03/21 08:16:22;;;;;;;35.15;23.50;;;;;;;;;;5096965;28;20199;-67
2022/03/21 08:18:52;;;;;;;35.95;24.48;;;;;;;;;;5097429;28;20201;-67
2022/03/21 08:21:19;;;;;;;36.47;22.93;;;;;;;;;;5096868;28;20194;-67
2022/03/21 08:23:47;;;;;;;31.90;21.80;;;;;;;;;;5097491;28;20499;-66
2022/03/21 08:26:16;;;;;;;33.00;22.17;;;;;;;;;;5096882;28;20540;-66
2022/03/21 08:28:44;;;;;;;31.08;21.80;;;;;;;;;;5096534;28;20200;-66
2022/03/21 08:31:13;;;;;;;30.23;21.65;;;;;;;;;;5096441;28;20749;-66
2022/03/21 08:33:41;;;;;;;29.33;19.50;;;;;;;;;;5096468;28;20193;-68
2022/03/21 08:36:11;;;;;;;26.98;19.40;;;;;;;;;;5096856;28;20679;-67
2022/03/21 08:38:38;;;;;;;25.80;19.35;;;;;;;;;;5096704;28;20666;-67
2022/03/21 08:41:05;;;;;;;33.83;22.40;;;;;;;;;;5097033;28;20235;-67
2022/03/21 08:43:32;;;;;;;32.97;21.92;;;;;;;;;;5096551;28;20467;-67
2022/03/21 08:46:00;;;;;;;28.13;20.38;;;;;;;;;;5096156;28;20190;-67
2022/03/21 08:51:09;;;;;;;23.60;19.70;;;;;;;;;;5096229;28;20227;-67
2022/03/21 08:53:36;;;;;;;33.37;23.37;;;;;;;;;;5096454;28;21012;-67
2022/03/21 08:56:04;;;;;;;32.08;23.35;;;;;;;;;;5095984;28;20526;-67
2022/03/21 08:58:31;;;;;;;29.15;21.92;;;;;;;;;;5096404;28;20193;-67
2022/03/21 09:00:58;;;;;;;22.30;19.10;;;;;;;;;;5096372;28;20218;-67
2022/03/21 09:03:25;;;;;;;26.23;19.80;;;;;;;;;;5095760;28;20440;-67
2022/03/21 09:05:53;;;;;;;21.53;18.53;;;;;;;;;;5094944;28;20865;-67
2022/03/21 09:08:21;;;;;;;27.77;20.42;;;;;;;;;;5096031;28;20458;-66
2022/03/21 09:10:48;;;;;;;27.60;19.03;;;;;;;;;;5096157;28;20197;-67
2022/03/21 09:13:16;;;;;;;28.77;19.07;;;;;;;;;;5095624;28;20479;-67
2022/03/21 09:15:43;;;;;;;25.17;19.33;;;;;;;;;;5095649;28;20446;-67
2022/03/21 09:18:10;;;;;;;23.90;17.80;;;;;;;;;;5095271;28;20448;-67
2022/03/21 09:20:38;;;;;;;26.33;18.03;;;;;;;;;;5095988;28;20980;-66
2022/03/21 09:23:05;;;;;;;26.67;16.77;;;;;;;;;;5095389;28;20443;-66
2022/03/21 09:25:34;;;;;;;25.90;17.83;;;;;;;;;;5096091;28;20428;-66
2022/03/21 09:28:01;;;;;;;18.70;15.40;;;;;;;;;;5095805;28;20529;-66
2022/03/21 09:30:28;;;;;;;24.07;16.70;;;;;;;;;;5095375;28;20448;-66
2022/03/21 09:32:57;;;;;;;25.50;18.17;;;;;;;;;;5095500;28;20544;-66
2022/03/21 09:35:24;;;;;;;24.20;18.53;;;;;;;;;;5095803;28;20462;-66
2022/03/21 09:37:51;;;;;;;24.80;17.90;;;;;;;;;;5095472;28;20527;-66
2022/03/21 09:40:20;;;;;;;24.97;18.03;;;;;;;;;;5096017;28;20562;-66
2022/03/21 09:42:49;;;;;;;25.20;19.17;;;;;;;;;;5095355;28;20454;-67
2022/03/21 09:45:16;;;;;;;24.03;18.13;;;;;;;;;;5095514;28;20799;-67
2022/03/21 09:50:31;;;;;;;24.80;19.00;;;;;;;;;;5095384;28;20462;-66
2022/03/21 09:52:59;;;;;;;23.70;18.57;;;;;;;;;;5094783;28;20443;-67
2022/03/21 09:55:26;;;;;;;23.87;18.83;;;;;;;;;;5095003;28;20493;-67
2022/03/21 09:57:55;;;;;;;24.47;18.63;;;;;;;;;;5094799;28;20519;-66
2022/03/21 10:00:22;;;;;;;22.33;18.67;;;;;;;;;;5095012;28;20568;-66
2022/03/21 10:02:49;;;;;;;27.13;19.67;;;;;;;;;;5094763;28;20439;-66
2022/03/21 10:05:34;;;;;;;22.37;17.60;;;;;;;;;;5095429;28;20523;-66
2022/03/21 10:08:11;;;;;;;26.43;17.70;;;;;;;;;;5094626;28;20424;-67
2022/03/21 10:10:38;;;;;;;24.23;18.30;;;;;;;;;;5094947;28;20863;-68
2022/03/21 10:13:09;;;;;;;20.07;16.60;;;;;;;;;;5094433;28;20444;-67
2022/03/21 10:15:36;;;;;;;25.87;17.20;;;;;;;;;;5094560;28;20482;-67
2022/03/21 10:18:07;;;;;;;31.93;18.30;;;;;;;;;;5094523;28;20523;-67
2022/03/21 10:20:35;;;;;;;27.97;18.23;;;;;;;;;;5094460;28;20839;-66
2022/03/21 10:23:23;;;;;;;21.53;17.83;;;;;;;;;;5094731;28;20472;-67
2022/03/21 10:25:50;;;;;;;19.60;17.27;;;;;;;;;;5094265;28;20946;-67
2022/03/21 10:28:32;;;;;;;22.67;17.77;;;;;;;;;;5094663;28;20433;-67
2022/03/21 10:31:01;;;;;;;26.07;18.43;;;;;;;;;;5095165;28;20949;-67
2022/03/21 10:33:28;;;;;;;25.77;17.47;;;;;;;;;;5093956;28;20456;-67
2022/03/21 10:35:55;;;;;;;29.80;18.80;;;;;;;;;;5094448;28;20436;-67
2022/03/21 10:38:32;;;;;;;27.70;18.23;;;;;;;;;;5094065;28;20440;-67
2022/03/21 10:41:06;;;;;;;31.87;20.63;;;;;;;;;;5094268;28;20477;-67
2022/03/21 10:43:33;;;;;;;24.93;18.93;;;;;;;;;;5094111;28;20913;-67
2022/03/21 10:46:02;;;;;;;26.33;18.70;;;;;;;;;;5094242;28;20447;-67
2022/03/21 10:48:30;;;;;;;26.40;19.70;;;;;;;;;;5094477;28;20472;-67
2022/03/21 10:50:58;;;;;;;27.53;19.97;;;;;;;;;;5094165;28;20480;-67
2022/03/21 10:53:26;;;;;;;25.90;18.67;;;;;;;;;;5094091;28;20439;-67
2022/03/21 10:56:00;;;;;;;25.07;18.60;;;;;;;;;;5094053;28;20474;-67
2022/03/21 10:58:33;;;;;;;27.63;19.57;;;;;;;;;;5094356;28;20504;-67
2022/03/21 11:01:12;;;;;;;27.93;18.50;;;;;;;;;;5093711;28;20463;-67
2022/03/21 11:03:41;;;;;;;26.77;20.97;;;;;;;;;;5093941;28;20424;-68
2022/03/21 11:06:08;;;;;;;27.17;18.37;;;;;;;;;;5094147;28;20864;-68
2022/03/21 11:08:35;;;;;;;24.83;18.20;;;;;;;;;;5093802;28;20515;-68
2022/03/21 11:11:03;;;;;;;24.40;18.40;;;;;;;;;;5093919;28;20443;-67
2022/03/21 11:13:31;;;;;;;24.57;19.27;;;;;;;;;;5093799;28;20592;-68
2022/03/21 11:15:58;;;;;;;30.83;19.53;;;;;;;;;;5094254;28;20506;-68
2022/03/21 11:18:28;;;;;;;27.70;20.23;;;;;;;;;;5093791;28;20538;-67
2022/03/21 11:20:55;;;;;;;37.67;22.93;;;;;;;;;;5094077;28;20477;-68
2022/03/21 11:23:25;;;;;;;27.30;20.47;;;;;;;;;;5093832;28;20435;-68
2022/03/21 11:25:54;;;;;;;24.57;18.50;;;;;;;;;;5093782;28;20448;-67
2022/03/21 11:28:45;;;;;;;24.90;18.87;;;;;;;;;;5092847;28;20435;-67
2022/03/21 11:31:36;;;;;;;30.07;20.70;;;;;;;;;;5093739;28;20456;-68
2022/03/21 11:34:14;;;;;;;28.50;20.20;;;;;;;;;;5078204;28;20518;-68
2022/03/21 11:36:51;;;;;;;20.80;17.20;;;;;;;;;;5093764;28;20426;-68
2022/03/21 11:39:18;;;;;;;27.37;19.70;;;;;;;;;;5093125;28;20915;-68
2022/03/21 11:41:56;;;;;;;26.13;19.60;;;;;;;;;;5093435;28;20477;-67
2022/03/21 11:44:24;;;;;;;29.63;19.87;;;;;;;;;;5093083;28;20489;-66
2022/03/21 11:46:51;;;;;;;28.00;19.67;;;;;;;;;;5093191;28;20877;-66
2022/03/21 11:49:37;;;;;;;25.90;19.73;;;;;;;;;;5093432;28;20574;-67
2022/03/21 11:52:06;;;;;;;25.90;20.03;;;;;;;;;;5093059;28;20444;-67
2022/03/21 11:54:34;;;;;;;26.40;20.10;;;;;;;;;;5093668;28;20527;-67
2022/03/21 11:57:02;;;;;;;29.60;21.60;;;;;;;;;;5093436;28;20437;-67
2022/03/21 11:59:49;;;;;;;27.77;19.93;;;;;;;;;;5093521;28;20527;-67
2022/03/21 12:02:34;;;;;;;27.10;20.60;;;;;;;;;;5093383;28;20448;-67
2022/03/21 12:05:03;;;;;;;31.33;21.53;;;;;;;;;;5093269;28;20792;-67
2022/03/21 12:07:32;;;;;;;27.20;20.40;;;;;;;;;;5093014;28;20441;-67
2022/03/21 12:10:00;;;;;;;31.30;21.43;;;;;;;;;;5092783;28;20452;-67
2022/03/21 12:12:52;;;;;;;27.37;20.33;;;;;;;;;;5093222;28;20436;-67
2022/03/21 12:15:29;;;;;;;26.90;19.70;;;;;;;;;;5093057;28;20816;-67
2022/03/21 12:17:57;;;;;;;28.83;20.27;;;;;;;;;;5092848;28;20438;-67
2022/03/21 12:20:24;;;;;;;27.63;20.77;;;;;;;;;;5092643;28;20490;-67
2022/03/21 12:23:00;;;;;;;30.53;22.50;;;;;;;;;;5092831;28;20443;-67
2022/03/21 12:25:43;;;;;;;30.90;21.60;;;;;;;;;;5093118;28;20432;-68
2022/03/21 12:28:19;;;;;;;24.17;18.20;;;;;;;;;;5092976;28;20425;-67
2022/03/21 12:30:48;;;;;;;33.10;20.90;;;;;;;;;;5093091;28;20435;-67
2022/03/21 12:33:28;;;;;;;29.10;20.60;;;;;;;;;;5092898;28;20432;-67
2022/03/21 12:35:58;;;;;;;29.20;20.83;;;;;;;;;;5092998;28;20507;-68
2022/03/21 12:38:28;;;;;;;34.20;21.07;;;;;;;;;;5092531;28;21019;-67
2022/03/21 12:40:58;;;;;;;30.03;21.00;;;;;;;;;;5095942;28;20484;-67
2022/03/21 12:43:25;;;;;;;31.50;20.20;;;;;;;;;;5096488;28;20530;-67
2022/03/21 12:45:56;;;;;;;32.00;20.00;;;;;;;;;;5096592;28;20444;-67
2022/03/21 12:48:24;;;;;;;29.43;19.03;;;;;;;;;;5096285;28;20430;-67
2022/03/21 12:50:51;;;;;;;26.83;19.87;;;;;;;;;;5095778;28;20480;-68
2022/03/21 12:53:21;;;;;;;27.40;21.10;;;;;;;;;;5096128;28;20534;-75
2022/03/21 12:56:00;;;;;;;26.13;19.80;;;;;;;;;;5096209;28;20472;-70
2022/03/21 12:58:27;;;;;;;28.83;20.07;;;;;;;;;;5096807;28;20441;-69
2022/03/21 13:00:56;;;;;;;27.50;20.47;;;;;;;;;;5096131;28;20501;-69
2022/03/21 13:03:23;;;;;;;28.00;20.07;;;;;;;;;;5095710;28;20921;-68
2022/03/21 13:11:24;;;;;;;25.77;18.97;;;;;;;;;;5094741;28;20454;-70
2022/03/21 13:13:53;;;;;;;33.40;20.73;;;;;;;;;;5094676;28;20471;-68
2022/03/21 13:16:21;;;;;;;29.57;20.73;;;;;;;;;;5094378;28;20814;-69
2022/03/21 13:18:50;;;;;;;27.13;20.70;;;;;;;;;;5094195;28;20443;-69
2022/03/21 13:21:18;;;;;;;28.00;20.13;;;;;;;;;;5094874;28;20479;-69
2022/03/21 13:23:46;;;;;;;28.90;18.93;;;;;;;;;;5095541;28;20958;-68
2022/03/21 13:26:14;;;;;;;28.80;20.57;;;;;;;;;;5094919;28;20500;-69
2022/03/21 13:28:45;;;;;;;29.97;20.80;;;;;;;;;;5095297;28;20446;-68
2022/03/21 13:31:16;;;;;;;23.70;17.70;;;;;;;;;;5095282;28;20518;-68
2022/03/21 13:33:51;;;;;;;26.10;19.73;;;;;;;;;;5095414;28;20819;-68
2022/03/21 13:36:23;;;;;;;29.43;19.30;;;;;;;;;;5095586;28;20520;-68
2022/03/21 13:38:50;;;;;;;24.97;19.00;;;;;;;;;;5095504;28;20440;-68
2022/03/21 13:41:19;;;;;;;43.07;22.47;;;;;;;;;;5094713;28;20482;-68
2022/03/21 13:46:39;;;;;;;30.00;21.20;;;;;;;;;;5111108;27;20525;-69
2022/03/21 13:49:06;;;;;;;32.93;20.70;;;;;;;;;;5111442;28;20445;-67
2022/03/21 13:51:34;;;;;;;26.17;20.13;;;;;;;;;;5110877;28;20943;-70
2022/03/21 13:54:11;;;;;;;25.03;19.53;;;;;;;;;;5110974;28;20446;-68
2022/03/21 13:56:39;;;;;;;36.87;24.70;;;;;;;;;;5110801;28;20440;-68
2022/03/21 13:59:10;;;;;;;24.30;19.23;;;;;;;;;;5111207;28;20489;-69
2022/03/21 14:01:44;;;;;;;22.70;18.83;;;;;;;;;;5110574;28;20922;-68
2022/03/21 14:04:21;;;;;;;30.17;20.93;;;;;;;;;;5110991;28;20833;-68
2022/03/21 14:06:58;;;;;;;27.20;20.37;;;;;;;;;;5111020;28;20534;-69
2022/03/21 14:09:26;;;;;;;28.10;19.90;;;;;;;;;;5110947;28;20442;-69
2022/03/21 14:12:07;;;;;;;26.73;18.93;;;;;;;;;;5110611;28;20450;-69
2022/03/21 14:14:34;;;;;;;21.70;16.97;;;;;;;;;;5110898;28;20447;-69
2022/03/21 14:17:04;;;;;;;26.73;18.17;;;;;;;;;;5110984;28;20471;-68
2022/03/21 14:19:31;;;;;;;25.87;18.10;;;;;;;;;;5110520;28;20525;-69
2022/03/21 14:21:59;;;;;;;27.27;17.63;;;;;;;;;;5110083;28;20477;-68
2022/03/21 14:24:26;;;;;;;23.17;18.10;;;;;;;;;;5109559;28;20450;-68
2022/03/21 14:26:53;;;;;;;26.83;18.70;;;;;;;;;;5110592;28;20522;-68
2022/03/21 14:29:21;;;;;;;23.07;18.30;;;;;;;;;;5110290;28;20917;-68
2022/03/21 14:31:50;;;;;;;27.30;19.60;;;;;;;;;;5110456;28;20459;-69
2022/03/21 14:34:18;;;;;;;22.97;18.00;;;;;;;;;;5110168;28;20510;-68
2022/03/21 14:36:47;;;;;;;27.30;20.20;;;;;;;;;;5110286;28;20462;-68
2022/03/21 14:39:15;;;;;;;28.17;18.20;;;;;;;;;;5110251;28;20447;-68
2022/03/21 14:41:44;;;;;;;26.10;17.57;;;;;;;;;;5109993;28;20449;-68
2022/03/21 14:44:12;;;;;;;22.53;18.17;;;;;;;;;;5109470;28;20932;-69
2022/03/21 14:46:40;;;;;;;28.33;17.80;;;;;;;;;;5109704;28;21037;-68
2022/03/21 14:49:07;;;;;;;25.87;18.50;;;;;;;;;;5109939;28;20445;-69
2022/03/21 14:51:37;;;;;;;22.53;16.97;;;;;;;;;;5109746;28;20446;-68
2022/03/21 14:54:04;;;;;;;19.43;16.77;;;;;;;;;;5109522;28;20440;-68
2022/03/21 14:56:36;;;;;;;22.43;16.20;;;;;;;;;;5104166;28;20457;-68
2022/03/21 14:59:03;;;;;;;28.33;18.30;;;;;;;;;;5095927;28;20424;-68
2022/03/21 15:01:31;;;;;;;23.27;19.17;;;;;;;;;;5095561;28;20933;-68